sensor_id;sensor_type;location;lat;lon;timestamp;pressure;altitude;pressure_sealevel;temperature;humidity
70302;BME280;57706;56.326;43.882;2023-08-08T00:01:44;100364.97;;;20.39;70.18
70302;BME280;57706;56.326;43.882;2023-08-08T00:04:10;100362.16;;;20.33;70.66
70302;BME280;57706;56.326;43.882;2023-08-08T00:06:37;100367.13;;;20.30;70.93
70302;BME280;57706;56.326;43.882;2023-08-08T00:09:04;100362.28;;;20.27;70.87
70302;BME280;57706;56.326;43.882;2023-08-08T00:11:30;100363.53;;;20.24;70.95
70302;BME280;57706;56.326;43.882;2023-08-08T00:13:57;100358.19;;;20.24;70.81
70302;BME280;57706;56.326;43.882;2023-08-08T00:16:24;100370.97;;;20.22;71.38
70302;BME280;57706;56.326;43.882;2023-08-08T00:18:50;100366.88;;;20.19;71.00
70302;BME280;57706;56.326;43.882;2023-08-08T00:21:20;100364.44;;;20.18;71.08
70302;BME280;57706;56.326;43.882;2023-08-08T00:23:47;100357.47;;;20.17;71.10
70302;BME280;57706;56.326;43.882;2023-08-08T00:26:13;100359.56;;;20.15;71.19
70302;BME280;57706;56.326;43.882;2023-08-08T00:28:39;100354.66;;;20.12;71.29
70302;BME280;57706;56.326;43.882;2023-08-08T00:31:07;100354.91;;;20.10;71.52
70302;BME280;57706;56.326;43.882;2023-08-08T00:33:34;100355.84;;;20.16;71.36
70302;BME280;57706;56.326;43.882;2023-08-08T00:36:00;100355.72;;;20.11;71.26
70302;BME280;57706;56.326;43.882;2023-08-08T00:38:27;100353.50;;;20.07;71.37
70302;BME280;57706;56.326;43.882;2023-08-08T00:40:53;100356.59;;;20.04;71.77
70302;BME280;57706;56.326;43.882;2023-08-08T00:43:19;100354.41;;;20.01;72.14
70302;BME280;57706;56.326;43.882;2023-08-08T00:45:45;100355.44;;;20.00;72.43
70302;BME280;57706;56.326;43.882;2023-08-08T00:48:11;100355.66;;;19.99;72.19
70302;BME280;57706;56.326;43.882;2023-08-08T00:50:42;100357.53;;;19.98;72.22
70302;BME280;57706;56.326;43.882;2023-08-08T00:53:08;100356.13;;;19.96;72.35
70302;BME280;57706;56.326;43.882;2023-08-08T00:55:35;100359.22;;;19.92;72.94
70302;BME280;57706;56.326;43.882;2023-08-08T00:58:03;100348.19;;;19.89;72.80
70302;BME280;57706;56.326;43.882;2023-08-08T01:00:29;100345.53;;;19.89;72.94
70302;BME280;57706;56.326;43.882;2023-08-08T01:02:55;100343.06;;;19.87;73.04
70302;BME280;57706;56.326;43.882;2023-08-08T01:05:22;100344.91;;;19.87;73.32
70302;BME280;57706;56.326;43.882;2023-08-08T01:08:04;100348.03;;;19.84;73.41
70302;BME280;57706;56.326;43.882;2023-08-08T01:10:33;100346.41;;;19.83;73.40
70302;BME280;57706;56.326;43.882;2023-08-08T01:13:07;100345.84;;;19.80;73.78
70302;BME280;57706;56.326;43.882;2023-08-08T01:15:36;100350.13;;;19.81;73.70
70302;BME280;57706;56.326;43.882;2023-08-08T01:18:04;100346.41;;;19.83;73.82
70302;BME280;57706;56.326;43.882;2023-08-08T01:20:32;100341.09;;;19.83;74.16
70302;BME280;57706;56.326;43.882;2023-08-08T01:23:40;100353.59;;;19.82;74.39
70302;BME280;57706;56.326;43.882;2023-08-08T01:26:07;100348.94;;;19.77;74.20
70302;BME280;57706;56.326;43.882;2023-08-08T01:28:35;100351.03;;;19.75;74.59
70302;BME280;57706;56.326;43.882;2023-08-08T01:31:01;100347.78;;;19.73;74.67
70302;BME280;57706;56.326;43.882;2023-08-08T01:33:27;100355.16;;;19.71;74.80
70302;BME280;57706;56.326;43.882;2023-08-08T01:35:56;100360.94;;;19.68;74.96
70302;BME280;57706;56.326;43.882;2023-08-08T01:38:38;100353.16;;;19.66;75.15
70302;BME280;57706;56.326;43.882;2023-08-08T01:41:07;100349.34;;;19.62;75.97
70302;BME280;57706;56.326;43.882;2023-08-08T01:43:34;100347.72;;;19.61;75.84
70302;BME280;57706;56.326;43.882;2023-08-08T01:46:01;100344.22;;;19.61;76.16
70302;BME280;57706;56.326;43.882;2023-08-08T01:48:28;100348.75;;;19.60;76.39
70302;BME280;57706;56.326;43.882;2023-08-08T01:50:54;100342.75;;;19.65;75.67
70302;BME280;57706;56.326;43.882;2023-08-08T01:53:20;100343.91;;;19.69;75.95
70302;BME280;57706;56.326;43.882;2023-08-08T01:55:45;100349.81;;;19.71;75.73
70302;BME280;57706;56.326;43.882;2023-08-08T01:58:11;100344.88;;;19.75;75.64
70302;BME280;57706;56.326;43.882;2023-08-08T02:00:37;100353.16;;;19.85;75.48
70302;BME280;57706;56.326;43.882;2023-08-08T02:03:03;100342.19;;;19.93;74.95
70302;BME280;57706;56.326;43.882;2023-08-08T02:05:29;100349.53;;;19.98;74.75
70302;BME280;57706;56.326;43.882;2023-08-08T02:07:56;100342.09;;;20.00;74.83
70302;BME280;57706;56.326;43.882;2023-08-08T02:10:22;100349.66;;;20.03;74.73
70302;BME280;57706;56.326;43.882;2023-08-08T02:12:48;100354.09;;;20.10;74.55
70302;BME280;57706;56.326;43.882;2023-08-08T02:15:14;100352.97;;;20.17;74.13
70302;BME280;57706;56.326;43.882;2023-08-08T02:17:41;100352.84;;;20.24;73.80
70302;BME280;57706;56.326;43.882;2023-08-08T02:20:07;100350.09;;;20.31;73.97
70302;BME280;57706;56.326;43.882;2023-08-08T02:22:33;100355.09;;;20.39;73.48
70302;BME280;57706;56.326;43.882;2023-08-08T02:25:00;100342.25;;;20.48;73.01
70302;BME280;57706;56.326;43.882;2023-08-08T02:27:26;100353.63;;;20.55;72.46
70302;BME280;57706;56.326;43.882;2023-08-08T02:29:51;100355.13;;;20.63;72.10
70302;BME280;57706;56.326;43.882;2023-08-08T02:32:19;100352.13;;;20.71;71.81
70302;BME280;57706;56.326;43.882;2023-08-08T02:34:45;100346.66;;;20.78;71.31
70302;BME280;57706;56.326;43.882;2023-08-08T02:37:12;100354.34;;;20.86;70.76
70302;BME280;57706;56.326;43.882;2023-08-08T02:39:42;100351.34;;;20.95;70.47
70302;BME280;57706;56.326;43.882;2023-08-08T02:42:09;100359.00;;;21.03;70.14
70302;BME280;57706;56.326;43.882;2023-08-08T02:44:35;100350.63;;;21.11;69.91
70302;BME280;57706;56.326;43.882;2023-08-08T02:47:00;100355.88;;;21.18;69.86
70302;BME280;57706;56.326;43.882;2023-08-08T02:49:26;100352.00;;;21.26;69.45
70302;BME280;57706;56.326;43.882;2023-08-08T02:51:52;100353.41;;;21.40;69.01
70302;BME280;57706;56.326;43.882;2023-08-08T02:54:18;100351.97;;;21.50;68.48
70302;BME280;57706;56.326;43.882;2023-08-08T02:56:44;100354.75;;;21.55;68.37
70302;BME280;57706;56.326;43.882;2023-08-08T02:59:11;100354.38;;;21.63;68.17
70302;BME280;57706;56.326;43.882;2023-08-08T03:01:37;100354.03;;;21.71;67.70
70302;BME280;57706;56.326;43.882;2023-08-08T03:04:10;100359.00;;;21.80;67.43
70302;BME280;57706;56.326;43.882;2023-08-08T03:06:35;100362.34;;;21.87;67.36
70302;BME280;57706;56.326;43.882;2023-08-08T03:09:02;100367.56;;;21.94;67.20
70302;BME280;57706;56.326;43.882;2023-08-08T03:11:28;100353.22;;;22.00;67.06
70302;BME280;57706;56.326;43.882;2023-08-08T03:13:54;100361.09;;;22.07;66.81
70302;BME280;57706;56.326;43.882;2023-08-08T03:16:21;100373.53;;;22.13;66.58
70302;BME280;57706;56.326;43.882;2023-08-08T03:18:46;100367.78;;;22.21;65.97
70302;BME280;57706;56.326;43.882;2023-08-08T03:21:13;100361.78;;;22.31;65.82
70302;BME280;57706;56.326;43.882;2023-08-08T03:23:39;100366.16;;;22.37;65.51
70302;BME280;57706;56.326;43.882;2023-08-08T03:26:05;100364.72;;;22.47;65.32
70302;BME280;57706;56.326;43.882;2023-08-08T03:28:31;100367.03;;;22.55;64.65
70302;BME280;57706;56.326;43.882;2023-08-08T03:30:57;100372.13;;;22.57;64.63
70302;BME280;57706;56.326;43.882;2023-08-08T03:33:23;100367.44;;;22.64;63.79
70302;BME280;57706;56.326;43.882;2023-08-08T03:35:49;100362.78;;;22.76;63.29
70302;BME280;57706;56.326;43.882;2023-08-08T03:38:16;100366.75;;;22.91;62.90
70302;BME280;57706;56.326;43.882;2023-08-08T03:40:41;100364.22;;;23.01;63.03
70302;BME280;57706;56.326;43.882;2023-08-08T03:43:07;100367.03;;;23.12;62.43
70302;BME280;57706;56.326;43.882;2023-08-08T03:45:33;100366.31;;;23.16;61.59
70302;BME280;57706;56.326;43.882;2023-08-08T03:47:59;100361.88;;;23.27;61.10
70302;BME280;57706;56.326;43.882;2023-08-08T03:50:25;100368.72;;;23.35;60.80
70302;BME280;57706;56.326;43.882;2023-08-08T03:52:51;100363.81;;;23.49;60.40
70302;BME280;57706;56.326;43.882;2023-08-08T03:55:17;100366.03;;;23.57;60.03
70302;BME280;57706;56.326;43.882;2023-08-08T03:57:45;100371.53;;;23.68;59.95
70302;BME280;57706;56.326;43.882;2023-08-08T04:00:11;100359.78;;;23.74;60.00
70302;BME280;57706;56.326;43.882;2023-08-08T04:02:40;100377.13;;;23.88;59.96
70302;BME280;57706;56.326;43.882;2023-08-08T04:05:07;100364.25;;;23.90;60.38
70302;BME280;57706;56.326;43.882;2023-08-08T04:07:33;100367.00;;;23.96;59.76
70302;BME280;57706;56.326;43.882;2023-08-08T04:09:59;100369.41;;;23.97;60.17
70302;BME280;57706;56.326;43.882;2023-08-08T04:12:32;100372.16;;;24.02;60.43
70302;BME280;57706;56.326;43.882;2023-08-08T04:15:00;100374.13;;;24.07;60.68
70302;BME280;57706;56.326;43.882;2023-08-08T04:17:26;100378.47;;;24.13;60.57
70302;BME280;57706;56.326;43.882;2023-08-08T04:19:52;100372.06;;;24.19;60.47
70302;BME280;57706;56.326;43.882;2023-08-08T04:22:18;100372.06;;;24.19;60.23
70302;BME280;57706;56.326;43.882;2023-08-08T04:24:44;100371.91;;;24.31;59.46
70302;BME280;57706;56.326;43.882;2023-08-08T04:27:10;100374.41;;;24.38;58.64
70302;BME280;57706;56.326;43.882;2023-08-08T04:29:36;100367.97;;;24.39;57.28
70302;BME280;57706;56.326;43.882;2023-08-08T04:32:02;100369.53;;;24.35;55.95
70302;BME280;57706;56.326;43.882;2023-08-08T04:34:28;100371.44;;;24.40;56.40
70302;BME280;57706;56.326;43.882;2023-08-08T04:36:54;100366.97;;;24.51;55.86
70302;BME280;57706;56.326;43.882;2023-08-08T04:39:19;100371.09;;;24.64;55.46
70302;BME280;57706;56.326;43.882;2023-08-08T04:41:45;100369.53;;;24.73;55.74
70302;BME280;57706;56.326;43.882;2023-08-08T04:44:11;100371.00;;;24.81;55.27
70302;BME280;57706;56.326;43.882;2023-08-08T04:46:37;100370.47;;;24.84;54.41
70302;BME280;57706;56.326;43.882;2023-08-08T04:49:03;100369.84;;;24.77;54.28
70302;BME280;57706;56.326;43.882;2023-08-08T04:51:29;100366.44;;;24.86;54.86
70302;BME280;57706;56.326;43.882;2023-08-08T04:53:55;100366.78;;;24.95;54.19
70302;BME280;57706;56.326;43.882;2023-08-08T04:56:20;100370.06;;;25.08;54.71
70302;BME280;57706;56.326;43.882;2023-08-08T04:58:46;100375.97;;;25.10;53.88
70302;BME280;57706;56.326;43.882;2023-08-08T05:01:12;100374.94;;;25.16;53.53
70302;BME280;57706;56.326;43.882;2023-08-08T05:03:40;100382.56;;;25.29;53.60
70302;BME280;57706;56.326;43.882;2023-08-08T05:06:07;100376.69;;;25.38;53.48
70302;BME280;57706;56.326;43.882;2023-08-08T05:08:32;100366.50;;;25.50;53.14
70302;BME280;57706;56.326;43.882;2023-08-08T05:10:58;100377.81;;;25.52;52.68
70302;BME280;57706;56.326;43.882;2023-08-08T05:13:24;100367.09;;;25.58;52.38
70302;BME280;57706;56.326;43.882;2023-08-08T05:15:50;100369.97;;;25.46;52.51
70302;BME280;57706;56.326;43.882;2023-08-08T05:18:16;100370.84;;;25.56;52.44
70302;BME280;57706;56.326;43.882;2023-08-08T05:20:42;100374.41;;;25.67;52.15
70302;BME280;57706;56.326;43.882;2023-08-08T05:23:07;100364.47;;;25.83;51.93
70302;BME280;57706;56.326;43.882;2023-08-08T05:25:33;100380.09;;;25.92;51.79
70302;BME280;57706;56.326;43.882;2023-08-08T05:27:59;100372.81;;;25.97;51.06
70302;BME280;57706;56.326;43.882;2023-08-08T05:30:25;100372.84;;;26.13;51.18
70302;BME280;57706;56.326;43.882;2023-08-08T05:32:51;100369.94;;;26.25;51.15
70302;BME280;57706;56.326;43.882;2023-08-08T05:35:17;100381.81;;;26.39;49.42
70302;BME280;57706;56.326;43.882;2023-08-08T05:37:42;100376.41;;;26.29;47.87
70302;BME280;57706;56.326;43.882;2023-08-08T05:40:09;100373.97;;;26.38;48.20
70302;BME280;57706;56.326;43.882;2023-08-08T05:42:37;100371.81;;;26.82;47.17
70302;BME280;57706;56.326;43.882;2023-08-08T05:45:03;100373.28;;;27.34;46.38
70302;BME280;57706;56.326;43.882;2023-08-08T05:47:32;100373.78;;;28.02;45.17
70302;BME280;57706;56.326;43.882;2023-08-08T05:49:58;100364.31;;;28.40;43.60
70302;BME280;57706;56.326;43.882;2023-08-08T05:52:24;100372.09;;;28.76;42.98
70302;BME280;57706;56.326;43.882;2023-08-08T05:54:50;100365.03;;;28.80;42.89
70302;BME280;57706;56.326;43.882;2023-08-08T05:57:15;100363.97;;;28.76;43.19
70302;BME280;57706;56.326;43.882;2023-08-08T05:59:41;100370.94;;;28.58;43.59
70302;BME280;57706;56.326;43.882;2023-08-08T06:02:10;100361.75;;;28.24;42.00
70302;BME280;57706;56.326;43.882;2023-08-08T06:04:36;100366.09;;;28.15;43.24
70302;BME280;57706;56.326;43.882;2023-08-08T06:07:02;100362.81;;;28.28;43.45
70302;BME280;57706;56.326;43.882;2023-08-08T06:09:29;100367.06;;;28.35;43.98
70302;BME280;57706;56.326;43.882;2023-08-08T06:11:55;100358.00;;;28.20;42.88
70302;BME280;57706;56.326;43.882;2023-08-08T06:14:20;100358.00;;;28.20;43.80
70302;BME280;57706;56.326;43.882;2023-08-08T06:16:46;100362.22;;;28.32;44.52
70302;BME280;57706;56.326;43.882;2023-08-08T06:19:12;100355.50;;;28.58;44.54
70302;BME280;57706;56.326;43.882;2023-08-08T06:21:41;100352.16;;;30.03;41.38
70302;BME280;57706;56.326;43.882;2023-08-08T06:24:07;100352.88;;;35.49;32.08
70302;BME280;57706;56.326;43.882;2023-08-08T06:26:33;100337.03;;;39.95;24.59
70302;BME280;57706;56.326;43.882;2023-08-08T06:28:58;100332.78;;;43.10;21.02
70302;BME280;57706;56.326;43.882;2023-08-08T06:31:24;100334.53;;;44.89;19.32
70302;BME280;57706;56.326;43.882;2023-08-08T06:33:50;100325.03;;;47.02;16.96
70302;BME280;57706;56.326;43.882;2023-08-08T06:36:16;100319.63;;;47.77;15.65
70302;BME280;57706;56.326;43.882;2023-08-08T06:38:41;100323.91;;;49.30;14.60
70302;BME280;57706;56.326;43.882;2023-08-08T06:41:08;100311.13;;;49.83;13.22
70302;BME280;57706;56.326;43.882;2023-08-08T06:43:34;100315.25;;;49.78;13.58
70302;BME280;57706;56.326;43.882;2023-08-08T06:46:00;100303.19;;;49.81;13.26
70302;BME280;57706;56.326;43.882;2023-08-08T06:48:27;100308.47;;;46.91;14.84
70302;BME280;57706;56.326;43.882;2023-08-08T06:50:53;100303.28;;;46.93;14.79
70302;BME280;57706;56.326;43.882;2023-08-08T06:53:19;100299.88;;;45.97;15.97
70302;BME280;57706;56.326;43.882;2023-08-08T06:55:45;100301.97;;;49.99;12.64
70302;BME280;57706;56.326;43.882;2023-08-08T06:58:10;100290.97;;;52.51;11.84
70302;BME280;57706;56.326;43.882;2023-08-08T07:00:36;100298.13;;;52.08;11.18
70302;BME280;57706;56.326;43.882;2023-08-08T07:03:02;100288.59;;;48.46;13.10
70302;BME280;57706;56.326;43.882;2023-08-08T07:05:28;100292.91;;;49.78;12.78
70302;BME280;57706;56.326;43.882;2023-08-08T07:07:55;100286.31;;;51.42;10.67
70302;BME280;57706;56.326;43.882;2023-08-08T07:10:21;100280.44;;;51.62;11.01
70302;BME280;57706;56.326;43.882;2023-08-08T07:12:47;100286.16;;;52.29;10.38
70302;BME280;57706;56.326;43.882;2023-08-08T07:15:13;100283.66;;;53.96;9.90
70302;BME280;57706;56.326;43.882;2023-08-08T07:17:38;100283.69;;;52.31;10.47
70302;BME280;57706;56.326;43.882;2023-08-08T07:20:05;100285.72;;;49.44;12.01
70302;BME280;57706;56.326;43.882;2023-08-08T07:22:32;100283.41;;;49.42;12.58
70302;BME280;57706;56.326;43.882;2023-08-08T07:24:59;100281.84;;;51.06;11.86
70302;BME280;57706;56.326;43.882;2023-08-08T07:27:26;100289.94;;;51.65;10.85
70302;BME280;57706;56.326;43.882;2023-08-08T07:29:52;100279.00;;;51.58;11.01
70302;BME280;57706;56.326;43.882;2023-08-08T07:32:18;100279.25;;;53.76;9.75
70302;BME280;57706;56.326;43.882;2023-08-08T07:34:44;100282.28;;;54.81;8.83
70302;BME280;57706;56.326;43.882;2023-08-08T07:37:10;100271.47;;;54.17;9.13
70302;BME280;57706;56.326;43.882;2023-08-08T07:39:36;100273.31;;;52.64;10.38
70302;BME280;57706;56.326;43.882;2023-08-08T07:42:02;100270.59;;;49.78;11.97
70302;BME280;57706;56.326;43.882;2023-08-08T07:44:28;100264.38;;;51.28;10.36
70302;BME280;57706;56.326;43.882;2023-08-08T07:46:54;100277.47;;;51.31;10.95
70302;BME280;57706;56.326;43.882;2023-08-08T07:49:20;100273.28;;;50.28;11.72
70302;BME280;57706;56.326;43.882;2023-08-08T07:51:46;100271.03;;;52.04;10.89
70302;BME280;57706;56.326;43.882;2023-08-08T07:54:11;100271.97;;;53.78;9.23
70302;BME280;57706;56.326;43.882;2023-08-08T07:56:37;100265.53;;;54.25;8.67
70302;BME280;57706;56.326;43.882;2023-08-08T07:59:04;100266.81;;;53.77;9.48
70302;BME280;57706;56.326;43.882;2023-08-08T08:01:30;100268.31;;;52.14;10.25
70302;BME280;57706;56.326;43.882;2023-08-08T08:03:56;100270.13;;;53.25;9.69
70302;BME280;57706;56.326;43.882;2023-08-08T08:06:22;100267.81;;;56.25;8.02
70302;BME280;57706;56.326;43.882;2023-08-08T08:08:48;100255.34;;;52.29;10.31
70302;BME280;57706;56.326;43.882;2023-08-08T08:11:13;100255.84;;;54.26;9.38
70302;BME280;57706;56.326;43.882;2023-08-08T08:13:41;100256.31;;;52.36;10.09
70302;BME280;57706;56.326;43.882;2023-08-08T08:16:07;100254.00;;;53.48;9.24
70302;BME280;57706;56.326;43.882;2023-08-08T08:18:33;100256.16;;;55.63;8.67
70302;BME280;57706;56.326;43.882;2023-08-08T08:21:00;100251.84;;;53.89;9.62
70302;BME280;57706;56.326;43.882;2023-08-08T08:23:26;100248.34;;;53.38;9.98
70302;BME280;57706;56.326;43.882;2023-08-08T08:25:52;100253.03;;;52.59;10.35
70302;BME280;57706;56.326;43.882;2023-08-08T08:28:18;100245.22;;;52.86;10.08
70302;BME280;57706;56.326;43.882;2023-08-08T08:30:43;100243.50;;;50.21;11.62
70302;BME280;57706;56.326;43.882;2023-08-08T08:33:09;100240.22;;;52.04;10.30
70302;BME280;57706;56.326;43.882;2023-08-08T08:35:36;100244.50;;;55.30;8.36
70302;BME280;57706;56.326;43.882;2023-08-08T08:38:03;100236.53;;;55.05;8.13
70302;BME280;57706;56.326;43.882;2023-08-08T08:40:34;100235.84;;;56.28;7.69
70302;BME280;57706;56.326;43.882;2023-08-08T08:43:02;100233.72;;;53.62;9.02
70302;BME280;57706;56.326;43.882;2023-08-08T08:45:29;100230.28;;;53.67;9.34
70302;BME280;57706;56.326;43.882;2023-08-08T08:47:56;100224.88;;;51.26;10.85
70302;BME280;57706;56.326;43.882;2023-08-08T08:50:26;100231.44;;;54.51;8.99
70302;BME280;57706;56.326;43.882;2023-08-08T08:52:53;100224.06;;;53.91;8.80
70302;BME280;57706;56.326;43.882;2023-08-08T08:55:21;100215.59;;;54.29;8.76
70302;BME280;57706;56.326;43.882;2023-08-08T08:57:49;100207.19;;;52.44;10.36
70302;BME280;57706;56.326;43.882;2023-08-08T09:00:16;100210.00;;;46.60;14.09
70302;BME280;57706;56.326;43.882;2023-08-08T09:02:43;100209.16;;;49.95;11.87
70302;BME280;57706;56.326;43.882;2023-08-08T09:05:10;100205.56;;;54.37;9.34
70302;BME280;57706;56.326;43.882;2023-08-08T09:07:37;100202.53;;;52.82;9.14
70302;BME280;57706;56.326;43.882;2023-08-08T09:10:04;100209.00;;;51.22;10.50
70302;BME280;57706;56.326;43.882;2023-08-08T09:12:31;100198.50;;;52.83;9.89
70302;BME280;57706;56.326;43.882;2023-08-08T09:14:57;100192.78;;;50.78;10.93
70302;BME280;57706;56.326;43.882;2023-08-08T09:17:27;100194.50;;;52.62;10.03
70302;BME280;57706;56.326;43.882;2023-08-08T09:19:54;100197.13;;;54.46;8.94
70302;BME280;57706;56.326;43.882;2023-08-08T09:22:20;100194.69;;;50.94;11.33
70302;BME280;57706;56.326;43.882;2023-08-08T09:24:46;100189.13;;;53.36;9.95
70302;BME280;57706;56.326;43.882;2023-08-08T09:27:13;100182.63;;;47.18;13.61
70302;BME280;57706;56.326;43.882;2023-08-08T09:29:41;100193.34;;;45.87;14.89
70302;BME280;57706;56.326;43.882;2023-08-08T09:32:07;100193.91;;;48.83;12.26
70302;BME280;57706;56.326;43.882;2023-08-08T09:34:34;100186.63;;;50.97;10.75
70302;BME280;57706;56.326;43.882;2023-08-08T09:37:00;100189.56;;;50.80;11.21
70302;BME280;57706;56.326;43.882;2023-08-08T09:39:28;100184.56;;;51.36;10.89
70302;BME280;57706;56.326;43.882;2023-08-08T09:41:55;100190.84;;;50.36;11.32
70302;BME280;57706;56.326;43.882;2023-08-08T09:44:26;100186.06;;;50.76;10.45
70302;BME280;57706;56.326;43.882;2023-08-08T09:46:54;100188.19;;;50.98;10.89
70302;BME280;57706;56.326;43.882;2023-08-08T09:49:21;100180.34;;;51.18;10.75
70302;BME280;57706;56.326;43.882;2023-08-08T09:51:48;100179.53;;;52.24;9.79
70302;BME280;57706;56.326;43.882;2023-08-08T09:54:15;100181.63;;;51.53;9.96
70302;BME280;57706;56.326;43.882;2023-08-08T09:56:42;100171.56;;;50.68;10.69
70302;BME280;57706;56.326;43.882;2023-08-08T09:59:09;100182.25;;;53.75;9.01
70302;BME280;57706;56.326;43.882;2023-08-08T10:01:35;100174.72;;;56.04;7.41
70302;BME280;57706;56.326;43.882;2023-08-08T10:04:03;100176.31;;;57.86;6.51
70302;BME280;57706;56.326;43.882;2023-08-08T10:06:28;100175.09;;;57.40;6.73
70302;BME280;57706;56.326;43.882;2023-08-08T10:08:55;100166.25;;;55.74;7.60
70302;BME280;57706;56.326;43.882;2023-08-08T10:11:22;100167.34;;;57.35;7.25
70302;BME280;57706;56.326;43.882;2023-08-08T10:13:50;100175.84;;;58.20;6.89
70302;BME280;57706;56.326;43.882;2023-08-08T10:16:17;100169.16;;;59.16;6.07
70302;BME280;57706;56.326;43.882;2023-08-08T10:18:54;100162.59;;;60.16;5.91
70302;BME280;57706;56.326;43.882;2023-08-08T10:21:23;100165.19;;;61.75;4.80
70302;BME280;57706;56.326;43.882;2023-08-08T10:23:49;100165.81;;;58.19;6.48
70302;BME280;57706;56.326;43.882;2023-08-08T10:26:26;100155.09;;;54.86;7.94
70302;BME280;57706;56.326;43.882;2023-08-08T10:28:58;100148.72;;;56.09;7.56
70302;BME280;57706;56.326;43.882;2023-08-08T10:31:24;100143.56;;;57.00;7.28
70302;BME280;57706;56.326;43.882;2023-08-08T10:33:59;100139.84;;;55.17;7.68
70302;BME280;57706;56.326;43.882;2023-08-08T10:36:26;100148.34;;;58.21;6.80
70302;BME280;57706;56.326;43.882;2023-08-08T10:38:52;100143.50;;;57.36;6.64
70302;BME280;57706;56.326;43.882;2023-08-08T10:41:22;100144.34;;;55.78;7.71
70302;BME280;57706;56.326;43.882;2023-08-08T10:43:55;100136.31;;;56.73;7.18
70302;BME280;57706;56.326;43.882;2023-08-08T10:46:29;100135.81;;;56.95;7.07
70302;BME280;57706;56.326;43.882;2023-08-08T10:49:01;100136.75;;;59.23;6.02
70302;BME280;57706;56.326;43.882;2023-08-08T10:51:37;100137.50;;;53.43;8.34
70302;BME280;57706;56.326;43.882;2023-08-08T10:54:04;100134.78;;;51.88;9.60
70302;BME280;57706;56.326;43.882;2023-08-08T10:56:30;100130.28;;;54.99;7.90
70302;BME280;57706;56.326;43.882;2023-08-08T10:58:56;100130.06;;;56.48;7.44
70302;BME280;57706;56.326;43.882;2023-08-08T11:01:25;100133.53;;;54.83;8.23
70302;BME280;57706;56.326;43.882;2023-08-08T11:03:52;100134.59;;;54.61;8.25
70302;BME280;57706;56.326;43.882;2023-08-08T11:06:18;100118.03;;;51.18;10.42
70302;BME280;57706;56.326;43.882;2023-08-08T11:08:44;100124.69;;;51.11;10.38
70302;BME280;57706;56.326;43.882;2023-08-08T11:11:10;100124.69;;;52.45;8.83
70302;BME280;57706;56.326;43.882;2023-08-08T11:13:36;100121.13;;;55.53;7.78
70302;BME280;57706;56.326;43.882;2023-08-08T11:16:02;100120.41;;;57.64;6.71
70302;BME280;57706;56.326;43.882;2023-08-08T11:18:28;100122.25;;;56.22;7.63
70302;BME280;57706;56.326;43.882;2023-08-08T11:20:54;100127.88;;;56.93;7.16
70302;BME280;57706;56.326;43.882;2023-08-08T11:23:20;100119.53;;;56.43;7.40
70302;BME280;57706;56.326;43.882;2023-08-08T11:25:46;100115.16;;;56.83;6.98
70302;BME280;57706;56.326;43.882;2023-08-08T11:28:13;100126.03;;;58.28;6.03
70302;BME280;57706;56.326;43.882;2023-08-08T11:30:42;100118.03;;;59.83;5.90
70302;BME280;57706;56.326;43.882;2023-08-08T11:33:09;100121.38;;;59.70;5.43
70302;BME280;57706;56.326;43.882;2023-08-08T11:35:43;100122.88;;;60.05;5.44
70302;BME280;57706;56.326;43.882;2023-08-08T11:38:11;100128.84;;;58.23;5.71
70302;BME280;57706;56.326;43.882;2023-08-08T11:40:38;100118.03;;;53.11;8.85
70302;BME280;57706;56.326;43.882;2023-08-08T11:43:04;100118.53;;;51.03;10.10
70302;BME280;57706;56.326;43.882;2023-08-08T11:45:31;100124.44;;;54.88;7.91
70302;BME280;57706;56.326;43.882;2023-08-08T11:47:57;100120.38;;;57.91;6.64
70302;BME280;57706;56.326;43.882;2023-08-08T11:50:24;100112.88;;;56.10;7.07
70302;BME280;57706;56.326;43.882;2023-08-08T11:52:52;100115.13;;;58.53;6.27
70302;BME280;57706;56.326;43.882;2023-08-08T11:55:19;100122.63;;;53.99;8.25
70302;BME280;57706;56.326;43.882;2023-08-08T11:57:49;100116.78;;;53.78;8.59
70302;BME280;57706;56.326;43.882;2023-08-08T12:00:16;100116.41;;;52.82;8.94
70302;BME280;57706;56.326;43.882;2023-08-08T12:02:43;100123.53;;;52.33;9.30
70302;BME280;57706;56.326;43.882;2023-08-08T12:05:11;100130.47;;;53.38;8.51
70302;BME280;57706;56.326;43.882;2023-08-08T12:07:38;100125.75;;;54.78;8.13
70302;BME280;57706;56.326;43.882;2023-08-08T12:10:17;100122.75;;;52.33;9.67
70302;BME280;57706;56.326;43.882;2023-08-08T12:12:44;100133.25;;;48.71;11.52
70302;BME280;57706;56.326;43.882;2023-08-08T12:15:11;100135.44;;;50.48;10.74
70302;BME280;57706;56.326;43.882;2023-08-08T12:17:37;100121.22;;;51.42;10.11
70302;BME280;57706;56.326;43.882;2023-08-08T12:20:04;100127.69;;;53.48;9.21
70302;BME280;57706;56.326;43.882;2023-08-08T12:22:32;100126.19;;;54.08;8.34
70302;BME280;57706;56.326;43.882;2023-08-08T12:24:57;100115.44;;;56.44;7.09
70302;BME280;57706;56.326;43.882;2023-08-08T12:27:24;100120.84;;;53.11;8.60
70302;BME280;57706;56.326;43.882;2023-08-08T12:29:49;100126.13;;;50.64;10.03
70302;BME280;57706;56.326;43.882;2023-08-08T12:32:15;100115.72;;;50.12;10.75
70302;BME280;57706;56.326;43.882;2023-08-08T12:34:41;100125.34;;;49.19;11.04
70302;BME280;57706;56.326;43.882;2023-08-08T12:37:07;100120.06;;;48.91;11.32
70302;BME280;57706;56.326;43.882;2023-08-08T12:39:33;100117.63;;;51.77;9.99
70302;BME280;57706;56.326;43.882;2023-08-08T12:41:58;100119.56;;;53.78;8.53